sensor_id;sensor_type;location;lat;lon;timestamp;P1;durP1;ratioP1;P2;durP2;ratioP2
19312;SDS011;9791;50.820;4.406;2022-08-18T00:00:17;76.90;;;53.20;;
19312;SDS011;9791;50.820;4.406;2022-08-18T00:02:42;78.32;;;54.78;;
19312;SDS011;9791;50.820;4.406;2022-08-18T00:05:09;81.47;;;55.03;;
19312;SDS011;9791;50.820;4.406;2022-08-18T00:07:38;87.50;;;58.47;;
19312;SDS011;9791;50.820;4.406;2022-08-18T00:10:05;85.60;;;57.00;;
19312;SDS011;9791;50.820;4.406;2022-08-18T00:12:34;90.88;;;57.40;;
19312;SDS011;9791;50.820;4.406;2022-08-18T00:15:01;91.22;;;60.40;;
19312;SDS011;9791;50.820;4.406;2022-08-18T00:17:29;88.30;;;58.78;;
19312;SDS011;9791;50.820;4.406;2022-08-18T00:19:55;88.93;;;59.10;;
19312;SDS011;9791;50.820;4.406;2022-08-18T00:22:21;83.80;;;55.90;;
19312;SDS011;9791;50.820;4.406;2022-08-18T00:24:49;82.65;;;55.22;;
19312;SDS011;9791;50.820;4.406;2022-08-18T00:27:17;64.82;;;46.72;;
19312;SDS011;9791;50.820;4.406;2022-08-18T00:29:45;74.95;;;51.47;;
19312;SDS011;9791;50.820;4.406;2022-08-18T00:32:14;87.15;;;55.85;;
19312;SDS011;9791;50.820;4.406;2022-08-18T00:34:41;85.57;;;55.95;;
19312;SDS011;9791;50.820;4.406;2022-08-18T00:37:07;90.45;;;59.08;;
19312;SDS011;9791;50.820;4.406;2022-08-18T00:39:33;90.32;;;60.47;;
19312;SDS011;9791;50.820;4.406;2022-08-18T00:42:10;87.07;;;57.85;;
19312;SDS011;9791;50.820;4.406;2022-08-18T00:44:36;83.53;;;56.97;;
19312;SDS011;9791;50.820;4.406;2022-08-18T00:47:02;91.53;;;58.95;;
19312;SDS011;9791;50.820;4.406;2022-08-18T00:49:28;80.45;;;54.58;;
19312;SDS011;9791;50.820;4.406;2022-08-18T00:51:54;85.43;;;56.47;;
19312;SDS011;9791;50.820;4.406;2022-08-18T00:54:24;74.63;;;49.47;;
19312;SDS011;9791;50.820;4.406;2022-08-18T00:56:54;43.50;;;33.08;;
19312;SDS011;9791;50.820;4.406;2022-08-18T01:01:57;33.92;;;28.40;;
19312;SDS011;9791;50.820;4.406;2022-08-18T01:06:55;42.05;;;30.30;;
19312;SDS011;9791;50.820;4.406;2022-08-18T01:09:24;43.60;;;33.58;;
19312;SDS011;9791;50.820;4.406;2022-08-18T01:11:50;43.42;;;32.30;;
19312;SDS011;9791;50.820;4.406;2022-08-18T01:14:16;37.60;;;29.55;;
19312;SDS011;9791;50.820;4.406;2022-08-18T01:16:46;37.97;;;30.50;;
19312;SDS011;9791;50.820;4.406;2022-08-18T01:19:31;37.67;;;29.05;;
19312;SDS011;9791;50.820;4.406;2022-08-18T01:24:45;33.88;;;26.67;;
19312;SDS011;9791;50.820;4.406;2022-08-18T01:27:30;31.85;;;26.70;;
19312;SDS011;9791;50.820;4.406;2022-08-18T01:29:56;36.03;;;28.85;;
19312;SDS011;9791;50.820;4.406;2022-08-18T01:32:26;41.40;;;31.42;;
19312;SDS011;9791;50.820;4.406;2022-08-18T01:34:52;37.80;;;29.45;;
19312;SDS011;9791;50.820;4.406;2022-08-18T01:37:20;36.97;;;29.52;;
19312;SDS011;9791;50.820;4.406;2022-08-18T01:39:46;33.47;;;26.95;;
19312;SDS011;9791;50.820;4.406;2022-08-18T01:42:13;39.85;;;32.00;;
19312;SDS011;9791;50.820;4.406;2022-08-18T01:44:41;42.97;;;32.08;;
19312;SDS011;9791;50.820;4.406;2022-08-18T01:47:07;43.25;;;34.75;;
19312;SDS011;9791;50.820;4.406;2022-08-18T01:49:34;47.55;;;36.70;;
19312;SDS011;9791;50.820;4.406;2022-08-18T01:52:00;46.70;;;36.25;;
19312;SDS011;9791;50.820;4.406;2022-08-18T01:54:28;47.95;;;36.22;;
19312;SDS011;9791;50.820;4.406;2022-08-18T01:56:55;50.65;;;38.20;;
19312;SDS011;9791;50.820;4.406;2022-08-18T01:59:21;50.78;;;38.13;;
19312;SDS011;9791;50.820;4.406;2022-08-18T02:01:47;44.28;;;34.03;;
19312;SDS011;9791;50.820;4.406;2022-08-18T02:04:13;44.80;;;34.10;;
19312;SDS011;9791;50.820;4.406;2022-08-18T02:06:40;47.10;;;34.92;;
19312;SDS011;9791;50.820;4.406;2022-08-18T02:09:06;47.95;;;37.53;;
19312;SDS011;9791;50.820;4.406;2022-08-18T02:11:32;55.35;;;39.47;;
19312;SDS011;9791;50.820;4.406;2022-08-18T02:13:58;56.78;;;41.60;;
19312;SDS011;9791;50.820;4.406;2022-08-18T02:16:24;63.85;;;44.25;;
19312;SDS011;9791;50.820;4.406;2022-08-18T02:18:50;55.92;;;41.85;;
19312;SDS011;9791;50.820;4.406;2022-08-18T02:21:18;63.38;;;45.20;;
19312;SDS011;9791;50.820;4.406;2022-08-18T02:23:45;63.67;;;44.08;;
19312;SDS011;9791;50.820;4.406;2022-08-18T02:26:13;67.07;;;43.50;;
19312;SDS011;9791;50.820;4.406;2022-08-18T02:28:39;62.97;;;45.70;;
19312;SDS011;9791;50.820;4.406;2022-08-18T02:31:06;64.40;;;46.05;;
19312;SDS011;9791;50.820;4.406;2022-08-18T02:33:33;66.60;;;47.28;;
19312;SDS011;9791;50.820;4.406;2022-08-18T02:35:59;56.45;;;41.17;;
19312;SDS011;9791;50.820;4.406;2022-08-18T02:38:25;53.33;;;40.67;;
19312;SDS011;9791;50.820;4.406;2022-08-18T02:40:55;51.33;;;38.47;;
19312;SDS011;9791;50.820;4.406;2022-08-18T02:43:21;46.88;;;35.47;;
19312;SDS011;9791;50.820;4.406;2022-08-18T02:45:48;54.38;;;40.63;;
19312;SDS011;9791;50.820;4.406;2022-08-18T02:48:14;49.38;;;38.85;;
19312;SDS011;9791;50.820;4.406;2022-08-18T02:50:39;52.15;;;38.20;;
19312;SDS011;9791;50.820;4.406;2022-08-18T02:53:12;46.38;;;36.55;;
19312;SDS011;9791;50.820;4.406;2022-08-18T02:55:49;48.13;;;37.03;;
19312;SDS011;9791;50.820;4.406;2022-08-18T02:58:15;47.58;;;36.67;;
19312;SDS011;9791;50.820;4.406;2022-08-18T03:00:42;43.50;;;33.63;;
19312;SDS011;9791;50.820;4.406;2022-08-18T03:03:08;43.05;;;34.92;;
19312;SDS011;9791;50.820;4.406;2022-08-18T03:05:34;43.15;;;33.03;;
19312;SDS011;9791;50.820;4.406;2022-08-18T03:08:00;39.40;;;32.03;;
19312;SDS011;9791;50.820;4.406;2022-08-18T03:10:26;40.72;;;32.97;;
19312;SDS011;9791;50.820;4.406;2022-08-18T03:12:52;45.30;;;35.35;;
19312;SDS011;9791;50.820;4.406;2022-08-18T03:15:18;46.45;;;35.45;;
19312;SDS011;9791;50.820;4.406;2022-08-18T03:17:44;46.72;;;34.85;;
19312;SDS011;9791;50.820;4.406;2022-08-18T03:20:10;47.53;;;35.95;;
19312;SDS011;9791;50.820;4.406;2022-08-18T03:22:36;50.35;;;37.83;;
19312;SDS011;9791;50.820;4.406;2022-08-18T03:25:03;48.25;;;36.30;;
19312;SDS011;9791;50.820;4.406;2022-08-18T03:27:29;46.28;;;35.55;;
19312;SDS011;9791;50.820;4.406;2022-08-18T03:29:55;47.63;;;34.58;;
19312;SDS011;9791;50.820;4.406;2022-08-18T03:32:21;45.92;;;34.38;;
19312;SDS011;9791;50.820;4.406;2022-08-18T03:34:47;46.13;;;35.72;;
19312;SDS011;9791;50.820;4.406;2022-08-18T03:37:13;42.20;;;33.65;;
19312;SDS011;9791;50.820;4.406;2022-08-18T03:39:40;46.72;;;33.83;;
19312;SDS011;9791;50.820;4.406;2022-08-18T03:42:06;44.95;;;33.53;;
19312;SDS011;9791;50.820;4.406;2022-08-18T03:44:33;41.42;;;31.83;;
19312;SDS011;9791;50.820;4.406;2022-08-18T03:47:00;43.22;;;33.42;;
19312;SDS011;9791;50.820;4.406;2022-08-18T03:49:27;44.95;;;33.50;;
19312;SDS011;9791;50.820;4.406;2022-08-18T03:51:53;40.33;;;31.13;;
19312;SDS011;9791;50.820;4.406;2022-08-18T03:54:19;37.90;;;30.65;;
19312;SDS011;9791;50.820;4.406;2022-08-18T03:56:46;40.72;;;30.55;;
19312;SDS011;9791;50.820;4.406;2022-08-18T03:59:16;39.75;;;30.92;;
19312;SDS011;9791;50.820;4.406;2022-08-18T04:01:43;36.13;;;27.30;;
19312;SDS011;9791;50.820;4.406;2022-08-18T04:04:13;37.47;;;27.45;;
19312;SDS011;9791;50.820;4.406;2022-08-18T04:06:43;33.10;;;27.90;;
19312;SDS011;9791;50.820;4.406;2022-08-18T04:09:13;37.42;;;26.48;;
19312;SDS011;9791;50.820;4.406;2022-08-18T04:11:39;35.40;;;27.05;;
19312;SDS011;9791;50.820;4.406;2022-08-18T04:14:10;33.95;;;27.58;;
19312;SDS011;9791;50.820;4.406;2022-08-18T04:16:37;35.65;;;29.55;;
19312;SDS011;9791;50.820;4.406;2022-08-18T04:19:04;37.72;;;29.35;;
19312;SDS011;9791;50.820;4.406;2022-08-18T04:21:31;42.58;;;33.08;;
19312;SDS011;9791;50.820;4.406;2022-08-18T04:23:58;37.75;;;29.55;;
19312;SDS011;9791;50.820;4.406;2022-08-18T04:26:32;37.63;;;28.20;;
19312;SDS011;9791;50.820;4.406;2022-08-18T04:28:59;38.90;;;28.92;;
19312;SDS011;9791;50.820;4.406;2022-08-18T04:31:26;41.88;;;31.30;;
19312;SDS011;9791;50.820;4.406;2022-08-18T04:33:53;36.00;;;28.63;;
19312;SDS011;9791;50.820;4.406;2022-08-18T04:36:20;34.63;;;27.10;;
19312;SDS011;9791;50.820;4.406;2022-08-18T04:38:46;31.95;;;25.27;;
19312;SDS011;9791;50.820;4.406;2022-08-18T04:41:12;28.58;;;24.40;;
19312;SDS011;9791;50.820;4.406;2022-08-18T04:43:39;24.77;;;22.02;;
19312;SDS011;9791;50.820;4.406;2022-08-18T04:46:06;25.02;;;21.73;;
19312;SDS011;9791;50.820;4.406;2022-08-18T04:48:33;25.90;;;21.60;;
19312;SDS011;9791;50.820;4.406;2022-08-18T04:51:06;31.73;;;24.55;;
19312;SDS011;9791;50.820;4.406;2022-08-18T04:53:32;32.95;;;25.13;;
19312;SDS011;9791;50.820;4.406;2022-08-18T04:56:24;29.00;;;23.73;;
19312;SDS011;9791;50.820;4.406;2022-08-18T04:58:52;27.42;;;22.20;;
19312;SDS011;9791;50.820;4.406;2022-08-18T05:01:21;28.13;;;22.50;;
19312;SDS011;9791;50.820;4.406;2022-08-18T05:03:50;28.55;;;22.90;;
19312;SDS011;9791;50.820;4.406;2022-08-18T05:06:17;27.85;;;21.60;;
19312;SDS011;9791;50.820;4.406;2022-08-18T05:08:43;27.38;;;22.98;;
19312;SDS011;9791;50.820;4.406;2022-08-18T05:11:12;28.05;;;23.25;;
19312;SDS011;9791;50.820;4.406;2022-08-18T05:13:38;27.20;;;23.20;;
19312;SDS011;9791;50.820;4.406;2022-08-18T05:16:04;29.20;;;22.90;;
19312;SDS011;9791;50.820;4.406;2022-08-18T05:18:31;25.85;;;20.95;;
19312;SDS011;9791;50.820;4.406;2022-08-18T05:20:57;26.02;;;21.25;;
19312;SDS011;9791;50.820;4.406;2022-08-18T05:23:25;23.55;;;18.65;;
19312;SDS011;9791;50.820;4.406;2022-08-18T05:25:55;27.20;;;21.10;;
19312;SDS011;9791;50.820;4.406;2022-08-18T05:28:21;28.50;;;22.42;;
19312;SDS011;9791;50.820;4.406;2022-08-18T05:30:47;22.88;;;20.10;;
19312;SDS011;9791;50.820;4.406;2022-08-18T05:33:13;25.40;;;19.00;;
19312;SDS011;9791;50.820;4.406;2022-08-18T05:35:40;24.35;;;19.85;;
19312;SDS011;9791;50.820;4.406;2022-08-18T05:40:45;22.13;;;17.08;;
19312;SDS011;9791;50.820;4.406;2022-08-18T05:43:20;20.80;;;15.75;;
19312;SDS011;9791;50.820;4.406;2022-08-18T05:45:46;22.50;;;18.58;;
19312;SDS011;9791;50.820;4.406;2022-08-18T05:48:14;22.77;;;17.92;;
19312;SDS011;9791;50.820;4.406;2022-08-18T05:50:40;21.58;;;17.52;;
19312;SDS011;9791;50.820;4.406;2022-08-18T05:53:08;23.08;;;18.70;;
19312;SDS011;9791;50.820;4.406;2022-08-18T05:58:49;19.10;;;16.52;;
19312;SDS011;9791;50.820;4.406;2022-08-18T06:01:17;20.95;;;17.30;;
19312;SDS011;9791;50.820;4.406;2022-08-18T06:03:46;19.45;;;15.55;;
19312;SDS011;9791;50.820;4.406;2022-08-18T06:06:18;26.30;;;19.20;;
19312;SDS011;9791;50.820;4.406;2022-08-18T06:08:52;28.65;;;23.85;;
19312;SDS011;9791;50.820;4.406;2022-08-18T06:11:21;34.72;;;26.48;;
19312;SDS011;9791;50.820;4.406;2022-08-18T06:13:47;31.75;;;26.25;;
19312;SDS011;9791;50.820;4.406;2022-08-18T06:19:00;29.83;;;23.90;;
19312;SDS011;9791;50.820;4.406;2022-08-18T06:27:13;30.33;;;24.17;;
19312;SDS011;9791;50.820;4.406;2022-08-18T06:29:45;28.00;;;23.05;;
19312;SDS011;9791;50.820;4.406;2022-08-18T06:32:22;28.17;;;22.08;;
19312;SDS011;9791;50.820;4.406;2022-08-18T06:35:05;23.85;;;20.80;;
19312;SDS011;9791;50.820;4.406;2022-08-18T06:37:44;24.08;;;19.67;;
19312;SDS011;9791;50.820;4.406;2022-08-18T06:40:29;26.85;;;21.17;;
19312;SDS011;9791;50.820;4.406;2022-08-18T06:42:55;23.15;;;19.02;;
19312;SDS011;9791;50.820;4.406;2022-08-18T06:45:23;22.55;;;19.88;;
19312;SDS011;9791;50.820;4.406;2022-08-18T06:47:56;20.42;;;16.42;;
19312;SDS011;9791;50.820;4.406;2022-08-18T06:53:00;23.02;;;16.52;;
19312;SDS011;9791;50.820;4.406;2022-08-18T06:55:31;25.27;;;20.15;;
19312;SDS011;9791;50.820;4.406;2022-08-18T06:57:59;23.15;;;19.17;;
19312;SDS011;9791;50.820;4.406;2022-08-18T07:00:27;24.08;;;20.70;;
19312;SDS011;9791;50.820;4.406;2022-08-18T07:02:55;24.65;;;19.45;;
19312;SDS011;9791;50.820;4.406;2022-08-18T07:05:26;21.35;;;17.92;;
19312;SDS011;9791;50.820;4.406;2022-08-18T07:08:08;25.08;;;20.10;;
19312;SDS011;9791;50.820;4.406;2022-08-18T07:10:44;18.30;;;13.93;;
19312;SDS011;9791;50.820;4.406;2022-08-18T07:13:27;19.65;;;15.23;;
19312;SDS011;9791;50.820;4.406;2022-08-18T07:15:54;19.42;;;15.25;;
19312;SDS011;9791;50.820;4.406;2022-08-18T07:18:22;17.88;;;15.02;;
19312;SDS011;9791;50.820;4.406;2022-08-18T07:20:50;15.32;;;12.55;;
19312;SDS011;9791;50.820;4.406;2022-08-18T07:25:47;17.17;;;13.43;;
19312;SDS011;9791;50.820;4.406;2022-08-18T07:28:29;14.88;;;11.82;;
19312;SDS011;9791;50.820;4.406;2022-08-18T07:31:10;12.40;;;10.23;;
19312;SDS011;9791;50.820;4.406;2022-08-18T07:33:37;9.25;;;7.78;;
19312;SDS011;9791;50.820;4.406;2022-08-18T07:36:05;11.05;;;8.45;;
19312;SDS011;9791;50.820;4.406;2022-08-18T07:38:36;13.52;;;10.40;;
19312;SDS011;9791;50.820;4.406;2022-08-18T07:41:20;13.23;;;9.05;;
19312;SDS011;9791;50.820;4.406;2022-08-18T07:49:03;12.23;;;10.25;;
19312;SDS011;9791;50.820;4.406;2022-08-18T07:54:21;14.32;;;11.60;;
19312;SDS011;9791;50.820;4.406;2022-08-18T08:07:30;17.80;;;12.70;;
19312;SDS011;9791;50.820;4.406;2022-08-18T08:12:37;17.90;;;13.02;;
19312;SDS011;9791;50.820;4.406;2022-08-18T08:18:03;12.05;;;8.45;;
19312;SDS011;9791;50.820;4.406;2022-08-18T08:23:00;9.90;;;7.13;;
19312;SDS011;9791;50.820;4.406;2022-08-18T08:25:51;13.27;;;6.97;;
19312;SDS011;9791;50.820;4.406;2022-08-18T08:33:44;8.60;;;6.07;;
19312;SDS011;9791;50.820;4.406;2022-08-18T08:36:14;10.18;;;5.95;;
19312;SDS011;9791;50.820;4.406;2022-08-18T08:38:48;6.90;;;4.38;;
19312;SDS011;9791;50.820;4.406;2022-08-18T08:41:21;9.23;;;5.60;;
19312;SDS011;9791;50.820;4.406;2022-08-18T08:44:00;8.35;;;5.10;;
19312;SDS011;9791;50.820;4.406;2022-08-18T08:46:29;9.60;;;5.65;;
19312;SDS011;9791;50.820;4.406;2022-08-18T08:49:03;10.25;;;5.15;;
19312;SDS011;9791;50.820;4.406;2022-08-18T08:51:42;7.40;;;4.43;;
19312;SDS011;9791;50.820;4.406;2022-08-18T08:54:15;6.43;;;4.13;;
19312;SDS011;9791;50.820;4.406;2022-08-18T08:56:44;9.38;;;4.10;;
19312;SDS011;9791;50.820;4.406;2022-08-18T08:59:14;7.95;;;5.13;;
19312;SDS011;9791;50.820;4.406;2022-08-18T09:09:20;5.47;;;4.45;;
19312;SDS011;9791;50.820;4.406;2022-08-18T09:22:05;8.00;;;5.53;;
19312;SDS011;9791;50.820;4.406;2022-08-18T09:24:44;10.05;;;5.65;;
19312;SDS011;9791;50.820;4.406;2022-08-18T09:27:30;8.52;;;6.03;;
19312;SDS011;9791;50.820;4.406;2022-08-18T09:29:58;7.47;;;5.35;;
19312;SDS011;9791;50.820;4.406;2022-08-18T09:37:20;6.93;;;4.72;;
19312;SDS011;9791;50.820;4.406;2022-08-18T09:39:54;7.00;;;4.72;;
19312;SDS011;9791;50.820;4.406;2022-08-18T09:50:32;7.32;;;4.05;;
19312;SDS011;9791;50.820;4.406;2022-08-18T09:53:14;8.35;;;4.10;;
19312;SDS011;9791;50.820;4.406;2022-08-18T09:55:52;5.70;;;4.32;;
19312;SDS011;9791;50.820;4.406;2022-08-18T09:58:46;5.85;;;3.90;;
19312;SDS011;9791;50.820;4.406;2022-08-18T10:01:21;7.53;;;5.03;;
19312;SDS011;9791;50.820;4.406;2022-08-18T10:06:34;7.97;;;5.40;;
19312;SDS011;9791;50.820;4.406;2022-08-18T10:09:06;6.05;;;3.70;;
19312;SDS011;9791;50.820;4.406;2022-08-18T10:12:02;8.82;;;4.82;;
19312;SDS011;9791;50.820;4.406;2022-08-18T10:16:57;5.45;;;3.72;;
19312;SDS011;9791;50.820;4.406;2022-08-18T10:19:34;8.77;;;3.85;;
19312;SDS011;9791;50.820;4.406;2022-08-18T10:22:03;6.00;;;4.45;;
19312;SDS011;9791;50.820;4.406;2022-08-18T10:24:34;6.60;;;5.25;;
19312;SDS011;9791;50.820;4.406;2022-08-18T10:27:02;7.05;;;3.92;;
19312;SDS011;9791;50.820;4.406;2022-08-18T10:34:41;7.72;;;3.72;;
19312;SDS011;9791;50.820;4.406;2022-08-18T10:37:21;7.18;;;4.47;;
19312;SDS011;9791;50.820;4.406;2022-08-18T10:47:57;10.07;;;4.75;;
19312;SDS011;9791;50.820;4.406;2022-08-18T10:50:23;6.38;;;3.67;;
19312;SDS011;9791;50.820;4.406;2022-08-18T10:55:35;7.35;;;4.25;;
19312;SDS011;9791;50.820;4.406;2022-08-18T11:00:43;9.05;;;4.47;;
19312;SDS011;9791;50.820;4.406;2022-08-18T11:05:40;7.93;;;5.10;;
19312;SDS011;9791;50.820;4.406;2022-08-18T11:08:09;7.22;;;4.63;;
19312;SDS011;9791;50.820;4.406;2022-08-18T11:18:07;6.60;;;4.40;;
19312;SDS011;9791;50.820;4.406;2022-08-18T11:20:34;8.13;;;4.88;;
19312;SDS011;9791;50.820;4.406;2022-08-18T11:23:02;7.88;;;4.85;;
19312;SDS011;9791;50.820;4.406;2022-08-18T11:25:32;7.85;;;5.07;;
19312;SDS011;9791;50.820;4.406;2022-08-18T11:27:59;9.93;;;5.25;;
19312;SDS011;9791;50.820;4.406;2022-08-18T11:30:30;7.47;;;3.90;;
19312;SDS011;9791;50.820;4.406;2022-08-18T11:32:57;6.45;;;3.70;;
19312;SDS011;9791;50.820;4.406;2022-08-18T11:35:43;6.55;;;3.70;;
19312;SDS011;9791;50.820;4.406;2022-08-18T11:38:10;8.25;;;4.20;;
19312;SDS011;9791;50.820;4.406;2022-08-18T11:40:44;7.20;;;4.13;;
19312;SDS011;9791;50.820;4.406;2022-08-18T11:43:12;6.45;;;3.88;;
19312;SDS011;9791;50.820;4.406;2022-08-18T11:56:10;6.72;;;4.07;;
19312;SDS011;9791;50.820;4.406;2022-08-18T11:58:45;6.47;;;4.25;;
19312;SDS011;9791;50.820;4.406;2022-08-18T12:11:50;7.28;;;4.95;;
19312;SDS011;9791;50.820;4.406;2022-08-18T12:14:18;8.35;;;4.80;;
19312;SDS011;9791;50.820;4.406;2022-08-18T12:16:45;8.10;;;4.65;;
19312;SDS011;9791;50.820;4.406;2022-08-18T12:19:12;7.30;;;5.05;;
19312;SDS011;9791;50.820;4.406;2022-08-18T12:21:39;8.65;;;4.72;;
19312;SDS011;9791;50.820;4.406;2022-08-18T12:24:07;6.95;;;4.75;;
19312;SDS011;9791;50.820;4.406;2022-08-18T12:26:34;7.53;;;4.10;;
19312;SDS011;9791;50.820;4.406;2022-08-18T12:29:00;6.20;;;4.32;;
19312;SDS011;9791;50.820;4.406;2022-08-18T12:31:26;7.00;;;4.57;;
19312;SDS011;9791;50.820;4.406;2022-08-18T12:33:52;8.50;;;6.13;;
19312;SDS011;9791;50.820;4.406;2022-08-18T12:36:18;8.48;;;5.07;;
19312;SDS011;9791;50.820;4.406;2022-08-18T12:38:44;9.32;;;6.35;;
19312;SDS011;9791;50.820;4.406;2022-08-18T12:41:10;7.25;;;5.18;;
19312;SDS011;9791;50.820;4.406;2022-08-18T12:43:39;6.32;;;5.10;;
19312;SDS011;9791;50.820;4.406;2022-08-18T12:46:05;5.57;;;4.10;;
19312;SDS011;9791;50.820;4.406;2022-08-18T12:48:31;7.40;;;4.72;;
19312;SDS011;9791;50.820;4.406;2022-08-18T12:50:57;6.65;;;5.10;;
19312;SDS011;9791;50.820;4.406;2022-08-18T12:53:23;7.93;;;4.53;;
19312;SDS011;9791;50.820;4.406;2022-08-18T12:55:50;8.50;;;4.57;;
19312;SDS011;9791;50.820;4.406;2022-08-18T12:58:16;7.05;;;4.97;;
19312;SDS011;9791;50.820;4.406;2022-08-18T13:00:42;8.10;;;6.03;;
19312;SDS011;9791;50.820;4.406;2022-08-18T13:03:08;7.72;;;5.15;;
19312;SDS011;9791;50.820;4.406;2022-08-18T13:05:34;8.15;;;5.70;;
19312;SDS011;9791;50.820;4.406;2022-08-18T13:08:01;8.23;;;5.47;;
19312;SDS011;9791;50.820;4.406;2022-08-18T13:10:28;7.18;;;5.13;;
19312;SDS011;9791;50.820;4.406;2022-08-18T13:12:54;7.70;;;5.55;;
19312;SDS011;9791;50.820;4.406;2022-08-18T13:15:20;8.10;;;6.05;;
19312;SDS011;9791;50.820;4.406;2022-08-18T13:17:48;7.75;;;6.38;;
19312;SDS011;9791;50.820;4.406;2022-08-18T13:20:15;7.43;;;5.72;;
19312;SDS011;9791;50.820;4.406;2022-08-18T13:22:41;9.27;;;5.90;;
19312;SDS011;9791;50.820;4.406;2022-08-18T13:25:08;9.77;;;5.65;;
19312;SDS011;9791;50.820;4.406;2022-08-18T13:27:35;12.82;;;6.38;;
19312;SDS011;9791;50.820;4.406;2022-08-18T13:30:05;9.95;;;6.72;;
19312;SDS011;9791;50.820;4.406;2022-08-18T13:32:34;8.20;;;5.75;;
19312;SDS011;9791;50.820;4.406;2022-08-18T13:35:00;9.68;;;6.32;;
19312;SDS011;9791;50.820;4.406;2022-08-18T13:37:26;10.43;;;6.60;;
19312;SDS011;9791;50.820;4.406;2022-08-18T13:39:54;8.40;;;6.82;;
19312;SDS011;9791;50.820;4.406;2022-08-18T13:42:20;10.55;;;6.60;;
19312;SDS011;9791;50.820;4.406;2022-08-18T13:44:46;10.38;;;6.53;;
19312;SDS011;9791;50.820;4.406;2022-08-18T13:47:12;10.02;;;6.57;;
19312;SDS011;9791;50.820;4.406;2022-08-18T13:49:39;8.13;;;6.15;;
19312;SDS011;9791;50.820;4.406;2022-08-18T13:52:05;8.85;;;6.55;;
19312;SDS011;9791;50.820;4.406;2022-08-18T13:54:31;8.85;;;7.30;;
19312;SDS011;9791;50.820;4.406;2022-08-18T13:56:58;8.95;;;7.40;;
19312;SDS011;9791;50.820;4.406;2022-08-18T13:59:24;7.72;;;5.60;;
19312;SDS011;9791;50.820;4.406;2022-08-18T14:01:55;8.27;;;7.07;;
19312;SDS011;9791;50.820;4.406;2022-08-18T14:04:22;12.48;;;8.45;;
19312;SDS011;9791;50.820;4.406;2022-08-18T14:06:51;9.70;;;8.10;;
19312;SDS011;9791;50.820;4.406;2022-08-18T14:09:17;14.25;;;9.07;;
19312;SDS011;9791;50.820;4.406;2022-08-18T14:11:43;11.32;;;8.98;;
19312;SDS011;9791;50.820;4.406;2022-08-18T14:14:10;12.15;;;8.85;;
19312;SDS011;9791;50.820;4.406;2022-08-18T14:16:36;9.85;;;8.13;;
19312;SDS011;9791;50.820;4.406;2022-08-18T14:19:02;10.35;;;7.30;;
19312;SDS011;9791;50.820;4.406;2022-08-18T14:21:48;8.60;;;7.70;;
19312;SDS011;9791;50.820;4.406;2022-08-18T14:24:34;8.75;;;7.82;;
19312;SDS011;9791;50.820;4.406;2022-08-18T14:27:23;8.38;;;6.43;;
19312;SDS011;9791;50.820;4.406;2022-08-18T14:29:49;10.10;;;9.00;;
19312;SDS011;9791;50.820;4.406;2022-08-18T14:32:20;10.38;;;8.25;;
19312;SDS011;9791;50.820;4.406;2022-08-18T14:34:46;10.77;;;8.15;;
19312;SDS011;9791;50.820;4.406;2022-08-18T14:37:13;8.68;;;7.43;;
19312;SDS011;9791;50.820;4.406;2022-08-18T14:39:39;9.80;;;7.18;;
19312;SDS011;9791;50.820;4.406;2022-08-18T14:42:05;9.20;;;7.50;;
19312;SDS011;9791;50.820;4.406;2022-08-18T14:44:31;9.52;;;7.45;;
19312;SDS011;9791;50.820;4.406;2022-08-18T14:46:58;9.13;;;6.97;;
19312;SDS011;9791;50.820;4.406;2022-08-18T14:49:24;9.18;;;6.70;;
19312;SDS011;9791;50.820;4.406;2022-08-18T14:51:50;9.68;;;7.38;;
19312;SDS011;9791;50.820;4.406;2022-08-18T14:54:16;9.35;;;7.25;;
19312;SDS011;9791;50.820;4.406;2022-08-18T14:56:43;10.00;;;8.40;;
19312;SDS011;9791;50.820;4.406;2022-08-18T14:59:09;9.65;;;7.13;;
19312;SDS011;9791;50.820;4.406;2022-08-18T15:01:36;8.13;;;6.80;;
19312;SDS011;9791;50.820;4.406;2022-08-18T15:04:03;11.30;;;7.90;;
19312;SDS011;9791;50.820;4.406;2022-08-18T15:06:29;10.13;;;7.45;;
19312;SDS011;9791;50.820;4.406;2022-08-18T15:08:55;9.52;;;6.07;;
19312;SDS011;9791;50.820;4.406;2022-08-18T15:11:21;8.73;;;7.07;;
19312;SDS011;9791;50.820;4.406;2022-08-18T15:13:47;9.68;;;6.35;;
19312;SDS011;9791;50.820;4.406;2022-08-18T15:16:13;7.35;;;5.63;;
19312;SDS011;9791;50.820;4.406;2022-08-18T15:18:40;8.30;;;6.13;;
19312;SDS011;9791;50.820;4.406;2022-08-18T15:21:06;8.75;;;7.10;;
19312;SDS011;9791;50.820;4.406;2022-08-18T15:23:51;9.73;;;6.68;;
19312;SDS011;9791;50.820;4.406;2022-08-18T15:26:36;13.20;;;9.05;;
19312;SDS011;9791;50.820;4.406;2022-08-18T15:29:03;8.30;;;6.82;;
19312;SDS011;9791;50.820;4.406;2022-08-18T15:31:32;7.75;;;6.32;;
19312;SDS011;9791;50.820;4.406;2022-08-18T15:33:58;8.75;;;6.25;;
19312;SDS011;9791;50.820;4.406;2022-08-18T15:36:24;8.05;;;7.25;;
19312;SDS011;9791;50.820;4.406;2022-08-18T15:38:50;6.68;;;5.85;;
19312;SDS011;9791;50.820;4.406;2022-08-18T15:43:55;15.32;;;7.13;;
19312;SDS011;9791;50.820;4.406;2022-08-18T15:46:23;6.70;;;5.93;;
19312;SDS011;9791;50.820;4.406;2022-08-18T15:48:49;9.85;;;6.75;;
19312;SDS011;9791;50.820;4.406;2022-08-18T15:51:15;11.43;;;7.95;;
19312;SDS011;9791;50.820;4.406;2022-08-18T15:53:43;9.10;;;6.65;;
19312;SDS011;9791;50.820;4.406;2022-08-18T15:56:13;10.20;;;8.10;;
19312;SDS011;9791;50.820;4.406;2022-08-18T15:58:39;11.70;;;8.73;;
19312;SDS011;9791;50.820;4.406;2022-08-18T16:01:07;11.10;;;8.98;;
19312;SDS011;9791;50.820;4.406;2022-08-18T16:03:35;13.02;;;8.52;;
19312;SDS011;9791;50.820;4.406;2022-08-18T16:06:02;11.95;;;8.35;;
19312;SDS011;9791;50.820;4.406;2022-08-18T16:08:31;11.07;;;8.45;;
19312;SDS011;9791;50.820;4.406;2022-08-18T16:10:57;12.13;;;8.70;;
19312;SDS011;9791;50.820;4.406;2022-08-18T16:13:30;11.02;;;8.40;;
19312;SDS011;9791;50.820;4.406;2022-08-18T16:15:56;8.32;;;7.43;;
19312;SDS011;9791;50.820;4.406;2022-08-18T16:18:22;10.82;;;8.30;;
19312;SDS011;9791;50.820;4.406;2022-08-18T16:20:48;10.32;;;7.88;;
19312;SDS011;9791;50.820;4.406;2022-08-18T16:23:15;10.20;;;8.02;;
19312;SDS011;9791;50.820;4.406;2022-08-18T16:25:41;10.38;;;8.77;;
19312;SDS011;9791;50.820;4.406;2022-08-18T16:28:09;11.88;;;9.05;;
19312;SDS011;9791;50.820;4.406;2022-08-18T16:30:37;11.20;;;8.80;;
19312;SDS011;9791;50.820;4.406;2022-08-18T16:33:04;14.38;;;7.70;;
19312;SDS011;9791;50.820;4.406;2022-08-18T16:35:30;8.73;;;7.15;;
19312;SDS011;9791;50.820;4.406;2022-08-18T16:38:01;8.80;;;7.78;;
19312;SDS011;9791;50.820;4.406;2022-08-18T16:40:27;9.90;;;7.47;;
19312;SDS011;9791;50.820;4.406;2022-08-18T16:42:54;7.75;;;6.38;;
19312;SDS011;9791;50.820;4.406;2022-08-18T16:45:20;9.63;;;7.05;;
19312;SDS011;9791;50.820;4.406;2022-08-18T16:47:46;11.10;;;7.07;;
19312;SDS011;9791;50.820;4.406;2022-08-18T16:50:14;8.95;;;7.40;;
19312;SDS011;9791;50.820;4.406;2022-08-18T16:52:42;11.90;;;7.30;;
19312;SDS011;9791;50.820;4.406;2022-08-18T16:55:09;10.75;;;6.95;;
19312;SDS011;9791;50.820;4.406;2022-08-18T16:57:39;8.13;;;7.22;;
19312;SDS011;9791;50.820;4.406;2022-08-18T17:00:24;9.07;;;7.32;;
19312;SDS011;9791;50.820;4.406;2022-08-18T17:03:09;9.10;;;6.60;;
19312;SDS011;9791;50.820;4.406;2022-08-18T17:06:01;10.00;;;7.03;;
19312;SDS011;9791;50.820;4.406;2022-08-18T17:08:28;7.82;;;5.70;;
19312;SDS011;9791;50.820;4.406;2022-08-18T17:10:59;11.65;;;6.32;;
19312;SDS011;9791;50.820;4.406;2022-08-18T17:13:25;8.90;;;5.90;;
19312;SDS011;9791;50.820;4.406;2022-08-18T17:15:50;10.02;;;6.53;;
19312;SDS011;9791;50.820;4.406;2022-08-18T17:18:17;7.65;;;5.90;;
19312;SDS011;9791;50.820;4.406;2022-08-18T17:20:44;7.63;;;5.57;;
19312;SDS011;9791;50.820;4.406;2022-08-18T17:23:10;9.15;;;5.68;;